createdAt,value
2022-08-11T00:02:15.296Z,21.42
2022-08-11T00:07:14.409Z,21.28
2022-08-11T00:12:14.585Z,21.14
2022-08-11T00:17:14.491Z,21.01
2022-08-11T00:22:14.420Z,20.87
2022-08-11T00:27:14.475Z,20.75
2022-08-11T00:32:14.494Z,20.63
2022-08-11T00:37:14.532Z,20.51
2022-08-11T00:42:14.501Z,20.40
2022-08-11T00:47:14.515Z,20.28
2022-08-11T00:52:14.426Z,20.18
2022-08-11T00:57:36.336Z,20.10
2022-08-11T01:02:16.448Z,20.04
2022-08-11T01:07:16.474Z,20.06
2022-08-11T01:12:18.443Z,20.11
2022-08-11T01:17:18.486Z,20.17
2022-08-11T01:22:18.532Z,20.29
2022-08-11T01:27:20.014Z,20.51
2022-08-11T01:32:20.650Z,20.72
2022-08-11T01:37:20.472Z,20.89
2022-08-11T01:42:49.178Z,21.07
2022-08-11T01:47:53.578Z,21.24
2022-08-11T01:52:53.875Z,21.42
2022-08-11T01:57:53.510Z,21.59
2022-08-11T02:02:53.807Z,21.75
2022-08-11T02:07:53.579Z,21.89
2022-08-11T02:12:55.581Z,22.03
2022-08-11T02:17:56.480Z,22.14
2022-08-11T02:23:58.739Z,22.23
2022-08-11T02:28:16.475Z,22.32
2022-08-11T02:33:27.489Z,22.38
2022-08-11T02:38:27.587Z,22.41
2022-08-11T02:43:27.571Z,22.44
2022-08-11T02:48:45.815Z,22.43
2022-08-11T02:53:48.877Z,22.38
2022-08-11T02:58:49.631Z,22.31
2022-08-11T03:03:50.755Z,22.19
2022-08-11T03:08:51.994Z,22.02
2022-08-11T03:14:09.842Z,21.86
2022-08-11T03:19:09.531Z,21.75
2022-08-11T03:24:09.589Z,21.64
2022-08-11T03:29:09.616Z,21.52
2022-08-11T03:34:10.853Z,21.37
2022-08-11T03:39:10.667Z,21.15
2022-08-11T03:44:10.719Z,20.87
2022-08-11T03:49:10.682Z,20.59
2022-08-11T03:54:10.617Z,20.32
2022-08-11T03:59:10.637Z,20.08
2022-08-11T04:04:10.565Z,19.85
2022-08-11T04:09:10.667Z,19.64
2022-08-11T04:14:44.412Z,19.46
2022-08-11T04:19:44.722Z,19.32
2022-08-11T04:24:49.744Z,19.23
2022-08-11T04:30:03.913Z,19.15
2022-08-11T04:34:48.692Z,19.08
2022-08-11T04:39:49.402Z,19.03
2022-08-11T04:44:49.702Z,19.00
2022-08-11T04:50:07.578Z,18.98
2022-08-11T04:55:25.953Z,18.99
2022-08-11T05:00:43.878Z,19.04
2022-08-11T05:05:54.725Z,19.10
2022-08-11T05:10:45.660Z,19.18
2022-08-11T05:16:04.145Z,19.27
2022-08-11T05:21:21.999Z,19.36
2022-08-11T05:26:47.502Z,19.49
2022-08-11T05:32:00.067Z,19.64
2022-08-11T05:37:23.853Z,19.78
2022-08-11T05:42:20.860Z,19.91
2022-08-11T05:47:39.991Z,20.05
2022-08-11T05:52:58.110Z,20.21
2022-08-11T05:57:59.714Z,20.39
2022-08-11T06:03:00.737Z,20.61
2022-08-11T06:08:00.783Z,20.89
2022-08-11T06:13:01.077Z,21.35
2022-08-11T06:18:02.362Z,22.20
2022-08-11T06:23:03.540Z,23.51
2022-08-11T06:28:03.745Z,25.33
2022-08-11T06:33:03.800Z,27.82
2022-08-11T06:38:03.787Z,30.66
2022-08-11T06:43:03.731Z,33.47
2022-08-11T06:48:05.639Z,36.02
2022-08-11T06:53:05.732Z,38.29
2022-08-11T06:58:24.002Z,40.40
2022-08-11T07:03:23.695Z,42.35
2022-08-11T07:08:42.106Z,44.02
2022-08-11T07:14:00.239Z,45.27
2022-08-11T07:19:17.974Z,46.38
2022-08-11T07:25:01.635Z,47.62
2022-08-11T07:29:38.907Z,48.99
2022-08-11T07:34:38.800Z,50.37
2022-08-11T07:39:38.802Z,51.44
2022-08-11T07:44:59.273Z,52.25
2022-08-11T07:50:16.956Z,52.88
2022-08-11T07:55:16.873Z,53.38
2022-08-11T08:00:34.900Z,54.00
2022-08-11T08:05:53.088Z,54.69
2022-08-11T08:11:11.043Z,55.18
2022-08-11T08:16:29.328Z,55.70
2022-08-11T08:21:28.801Z,56.62
2022-08-11T08:26:48.347Z,57.48
2022-08-11T08:31:48.780Z,57.93
2022-08-11T08:36:48.859Z,58.41
2022-08-11T08:41:49.684Z,59.08
2022-08-11T08:46:49.830Z,59.48
2022-08-11T08:52:01.216Z,59.49
2022-08-11T08:56:51.863Z,59.51
2022-08-11T09:01:52.013Z,59.55
2022-08-11T09:06:52.501Z,59.51
2022-08-11T09:11:55.864Z,59.21
2022-08-11T09:16:55.908Z,59.19
2022-08-11T09:22:15.370Z,59.66
2022-08-11T09:27:14.927Z,60.07
2022-08-11T09:32:14.867Z,60.31
2022-08-11T09:37:54.318Z,60.46
2022-08-11T09:42:53.188Z,60.47
2022-08-11T09:47:52.961Z,59.95
2022-08-11T09:53:34.675Z,59.21
2022-08-11T09:58:42.761Z,58.95
2022-08-11T10:03:18.868Z,58.54
2022-08-11T10:08:18.936Z,58.16
2022-08-11T10:14:32.181Z,58.05
2022-08-11T10:18:39.201Z,57.89
2022-08-11T10:24:13.703Z,57.32
2022-08-11T10:29:36.732Z,56.21
2022-08-11T10:34:33.944Z,55.01
2022-08-11T10:39:33.982Z,53.80
2022-08-11T10:44:33.998Z,52.28
2022-08-11T10:49:33.935Z,50.45
2022-08-11T10:54:52.259Z,48.52
2022-08-11T10:59:53.802Z,46.80
2022-08-11T11:04:54.004Z,44.96
2022-08-11T11:09:53.921Z,43.18
2022-08-11T11:15:16.144Z,41.68
2022-08-11T11:20:34.489Z,40.28
2022-08-11T11:25:17.345Z,39.14
2022-08-11T11:30:17.251Z,37.99
2022-08-11T11:35:16.947Z,36.86
2022-08-11T11:40:17.005Z,35.99
2022-08-11T11:45:23.429Z,35.30
2022-08-11T11:50:19.717Z,34.68
2022-08-11T11:55:20.023Z,34.11
2022-08-11T12:00:41.663Z,33.63
2022-08-11T12:05:40.425Z,33.28
2022-08-11T12:10:40.047Z,33.03
2022-08-11T12:16:23.769Z,32.81
2022-08-11T12:20:42.067Z,32.61
2022-08-11T12:26:25.411Z,32.43
2022-08-11T12:31:02.094Z,32.29
2022-08-11T12:36:02.078Z,32.21
2022-08-11T12:41:20.325Z,32.14
2022-08-11T12:46:19.995Z,32.04
2022-08-11T12:52:11.213Z,31.96
2022-08-11T12:56:58.462Z,31.90
2022-08-11T13:02:16.006Z,31.84
2022-08-11T13:07:16.115Z,31.82
2022-08-11T13:12:34.385Z,31.83
2022-08-11T13:17:43.656Z,31.86
2022-08-11T13:22:36.043Z,31.95
2022-08-11T13:27:36.072Z,32.05
2022-08-11T13:32:36.136Z,32.10
2022-08-11T13:38:19.229Z,32.09
2022-08-11T13:42:38.170Z,32.05
2022-08-11T13:47:39.539Z,32.02
2022-08-11T13:52:40.179Z,32.04
2022-08-11T13:58:08.205Z,32.07
2022-08-11T14:02:42.266Z,32.07
2022-08-11T14:07:42.194Z,32.07
2022-08-11T14:13:00.471Z,32.10
2022-08-11T14:18:02.727Z,32.15
2022-08-11T14:23:03.101Z,32.16
2022-08-11T14:28:41.999Z,32.08
2022-08-11T14:33:17.194Z,32.05
2022-08-11T14:38:09.968Z,32.10
2022-08-11T14:44:12.748Z,32.13
2022-08-11T14:48:30.211Z,32.13
2022-08-11T14:53:30.150Z,32.09
2022-08-11T14:58:33.337Z,32.04
2022-08-11T15:03:33.638Z,32.03
2022-08-11T15:08:51.395Z,32.03
2022-08-11T15:13:51.319Z,32.01
2022-08-11T15:18:51.223Z,31.96
2022-08-11T15:24:09.533Z,32.02
2022-08-11T15:29:27.525Z,32.16
2022-08-11T15:34:45.483Z,32.19
2022-08-11T15:39:47.864Z,32.17
2022-08-11T15:45:06.698Z,32.17
2022-08-11T15:50:12.617Z,32.15
2022-08-11T15:55:08.792Z,32.14
2022-08-11T16:00:27.509Z,32.14
2022-08-11T16:05:46.413Z,32.14
2022-08-11T16:10:29.434Z,32.12
2022-08-11T16:15:49.455Z,32.06
2022-08-11T16:20:49.286Z,32.01
2022-08-11T16:27:05.617Z,31.96
2022-08-11T16:30:51.256Z,31.91
2022-08-11T16:36:09.547Z,31.86
2022-08-11T16:41:11.712Z,31.84
2022-08-11T16:46:30.554Z,31.83
2022-08-11T16:51:30.290Z,31.80
2022-08-11T16:56:30.312Z,31.73
2022-08-11T17:01:30.216Z,31.64
2022-08-11T17:06:48.622Z,31.57
2022-08-11T17:12:06.610Z,31.51
2022-08-11T17:17:06.257Z,31.45
2022-08-11T17:22:24.503Z,31.35
2022-08-11T17:27:24.287Z,31.24
2022-08-11T17:32:56.686Z,31.13
2022-08-11T17:37:44.325Z,31.01
2022-08-11T17:43:02.676Z,30.87
2022-08-11T17:48:20.739Z,30.72
2022-08-11T17:53:38.301Z,30.58
2022-08-11T17:58:56.580Z,30.46
2022-08-11T18:03:58.544Z,30.34
2022-08-11T18:09:16.810Z,30.21
2022-08-11T18:14:34.566Z,30.09
2022-08-11T18:19:52.720Z,29.95
2022-08-11T18:25:10.727Z,29.78
2022-08-11T18:30:28.644Z,29.60
2022-08-11T18:35:46.863Z,29.41
2022-08-11T18:41:04.820Z,29.23
2022-08-11T18:46:22.774Z,29.05
2022-08-11T18:51:40.768Z,28.87
2022-08-11T18:56:58.610Z,28.67
2022-08-11T19:02:16.723Z,28.48
2022-08-11T19:07:34.736Z,28.31
2022-08-11T19:12:52.724Z,28.12
2022-08-11T19:18:10.689Z,27.93
2022-08-11T19:23:28.752Z,27.77
2022-08-11T19:28:46.698Z,27.64
2022-08-11T19:34:10.705Z,27.53
2022-08-11T19:39:24.759Z,27.41
2022-08-11T19:44:42.773Z,27.29
2022-08-11T19:50:00.637Z,27.17
2022-08-11T19:55:18.973Z,27.04
2022-08-11T20:00:36.849Z,26.92
2022-08-11T20:05:59.433Z,26.80
2022-08-11T20:11:14.782Z,26.68
2022-08-11T20:16:32.740Z,26.61
2022-08-11T20:21:50.382Z,26.55
2022-08-11T20:27:18.554Z,26.48
2022-08-11T20:32:28.948Z,26.45
2022-08-11T20:37:50.968Z,26.40
2022-08-11T20:43:06.859Z,26.34
2022-08-11T20:48:26.865Z,26.29
2022-08-11T20:53:44.932Z,26.23
2022-08-11T20:59:21.863Z,26.15
2022-08-11T21:04:22.904Z,26.08
2022-08-11T21:09:58.598Z,26.01
2022-08-11T21:15:04.900Z,25.95
2022-08-11T21:20:22.941Z,25.89
2022-08-11T21:25:40.974Z,25.85
2022-08-11T21:30:58.993Z,25.81
2022-08-11T21:36:16.822Z,25.74
2022-08-11T21:41:34.903Z,25.64
2022-08-11T21:46:52.665Z,25.54
2022-08-11T21:52:10.689Z,25.43
2022-08-11T21:57:28.790Z,25.32
2022-08-11T22:02:50.936Z,25.20
2022-08-11T22:08:08.816Z,25.10
2022-08-11T22:13:26.807Z,25.03
2022-08-11T22:18:44.830Z,24.99
2022-08-11T22:24:02.804Z,24.99
2022-08-11T22:29:20.961Z,25.03
2022-08-11T22:34:51.797Z,25.03
2022-08-11T22:40:03.051Z,25.02
2022-08-11T22:45:20.570Z,25.02
2022-08-11T22:50:38.894Z,24.99
2022-08-11T22:55:56.919Z,24.89
2022-08-11T23:01:15.201Z,24.76
2022-08-11T23:06:33.843Z,24.62
2022-08-11T23:12:07.017Z,24.47
2022-08-11T23:17:12.002Z,24.31
2022-08-11T23:22:39.514Z,24.13
2022-08-11T23:27:49.921Z,23.93
2022-08-11T23:33:07.898Z,23.82
2022-08-11T23:38:26.001Z,23.80
2022-08-11T23:43:43.695Z,23.81
2022-08-11T23:49:02.035Z,23.81
2022-08-11T23:54:19.938Z,23.76
2022-08-11T23:59:37.976Z,23.68
